JP-0084 weather

Umaki Heliport
Umaki, Kagawa Prefecture, Japan

Public forecast

Using degrees Celsius for public forecast. Weather courtesy of forecast.io.

Closest aviation weather report (METAR) to Umaki Heliport

Closest report is Takamatsu Airport, 21.4 nm (39.7 km) SW. Retrieved 2019/10/23 08:00 UTC (49 minutes ago):

RJOT 230800Z 08002KT 9999 FEW025 SCT150 BKN/// 19/15 Q1015

Closest aviation forecast (TAF) to Umaki Heliport

Closest forecast is Takamatsu Airport, 21.4 nm (39.7 km) SW. Retrieved 2019/10/23 06:30 UTC (2 hours ago):

TAF TAF RJOT 230510Z 2306/2412 15005KT 9999 FEW030 BECMG 2318/2321 4000 -RA BR FEW003 SCT005 BKN008 TEMPO 2321/2403 3000 RA BR FEW001 SCT003 BKN005 BECMG 2400/2403 07012KT TEMPO 2409/2412 3000 RA BR FEW001 SCT003 BKN005